createdAt,value
2019-04-21T00:02:18.628Z,54.60
2019-04-21T00:04:57.914Z,64.80
2019-04-21T00:07:39.289Z,66.40
2019-04-21T00:10:23.396Z,59.60
2019-04-21T00:12:47.240Z,56.80
2019-04-21T00:15:16.106Z,60.20
2019-04-21T00:17:36.952Z,56.00
2019-04-21T00:20:22.724Z,57.00
2019-04-21T00:22:53.580Z,68.80
2019-04-21T00:25:31.047Z,60.20
2019-04-21T00:28:21.960Z,63.80
2019-04-21T00:30:48.899Z,72.20
2019-04-21T00:33:06.957Z,90.80
2019-04-21T00:35:39.585Z,91.20
2019-04-21T00:38:29.135Z,86.00
2019-04-21T00:41:01.747Z,83.40
2019-04-21T00:43:27.982Z,68.40
2019-04-21T00:45:57.395Z,74.80
2019-04-21T00:48:45.129Z,73.20
2019-04-21T00:51:25.013Z,75.40
2019-04-21T00:53:58.500Z,78.20
2019-04-21T00:56:27.455Z,66.40
2019-04-21T00:58:59.806Z,70.20
2019-04-21T01:01:32.938Z,68.20
2019-04-21T01:06:42.766Z,68.40
2019-04-21T01:09:09.579Z,71.20
2019-04-21T01:11:50.549Z,70.60
2019-04-21T01:14:32.738Z,75.60
2019-04-21T01:17:02.302Z,70.40
2019-04-21T01:19:26.941Z,75.20
2019-04-21T01:21:40.121Z,80.40
2019-04-21T01:24:19.273Z,77.40
2019-04-21T01:26:56.793Z,79.80
2019-04-21T01:29:42.724Z,74.00
2019-04-21T01:32:19.667Z,98.80
2019-04-21T01:34:58.192Z,92.80
2019-04-21T01:37:36.087Z,94.20
2019-04-21T01:40:08.687Z,93.20
2019-04-21T01:42:32.704Z,56.20
2019-04-21T01:45:11.481Z,84.40
2019-04-21T01:47:41.903Z,69.80
2019-04-21T01:50:05.634Z,70.40
2019-04-21T01:52:57.564Z,73.80
2019-04-21T01:55:35.703Z,74.60
2019-04-21T01:58:11.007Z,79.60
2019-04-21T02:00:51.809Z,69.80
2019-04-21T02:06:06.095Z,88.40
2019-04-21T02:08:31.310Z,96.80
2019-04-21T02:11:12.591Z,87.40
2019-04-21T02:13:48.622Z,100.20
2019-04-21T02:16:16.977Z,89.20
2019-04-21T02:18:53.000Z,82.40
2019-04-21T02:21:17.798Z,73.40
2019-04-21T02:23:58.680Z,91.40
2019-04-21T02:26:37.537Z,75.40
2019-04-21T02:29:10.143Z,69.80
2019-04-21T02:31:53.461Z,71.80
2019-04-21T02:34:43.054Z,73.60
2019-04-21T02:37:05.519Z,73.40
2019-04-21T02:39:29.655Z,79.00
2019-04-21T02:42:05.333Z,77.60
2019-04-21T02:44:46.285Z,78.60
2019-04-21T02:47:07.045Z,71.00
2019-04-21T02:49:56.427Z,72.40
2019-04-21T02:57:22.936Z,59.60
2019-04-21T03:00:09.969Z,64.80
2019-04-21T03:02:55.410Z,62.00
2019-04-21T03:08:15.350Z,61.00
2019-04-21T03:10:53.235Z,66.80
2019-04-21T03:18:37.932Z,61.40
2019-04-21T03:21:07.573Z,63.40
2019-04-21T03:26:23.080Z,61.40
2019-04-21T03:28:43.455Z,68.60
2019-04-21T03:36:52.813Z,65.80
2019-04-21T03:38:55.386Z,59.40
2019-04-21T03:41:37.784Z,58.00
2019-04-21T03:44:07.596Z,53.80
2019-04-21T03:49:20.909Z,53.60
2019-04-21T03:51:59.343Z,57.20
2019-04-21T03:57:11.307Z,51.40
2019-04-21T03:59:25.801Z,55.80
2019-04-21T04:02:28.339Z,55.80
2019-04-21T04:05:11.032Z,50.00
2019-04-21T04:10:28.897Z,51.40
2019-04-21T04:12:50.559Z,52.00
2019-04-21T04:15:31.194Z,51.40
2019-04-21T04:18:04.241Z,51.80
2019-04-21T04:20:34.861Z,49.80
2019-04-21T04:23:10.397Z,51.40
2019-04-21T04:25:43.008Z,51.20
2019-04-21T04:28:19.123Z,48.40
2019-04-21T04:33:27.928Z,53.40
2019-04-21T04:41:55.045Z,53.00
2019-04-21T04:44:11.106Z,48.80
2019-04-21T04:46:45.583Z,48.40
2019-04-21T04:49:29.760Z,47.80
2019-04-21T04:54:37.132Z,51.20
2019-04-21T05:02:12.917Z,44.60
2019-04-21T05:04:47.384Z,46.00
2019-04-21T05:07:17.277Z,46.20
2019-04-21T05:09:47.292Z,43.00
2019-04-21T05:12:17.041Z,44.20
2019-04-21T05:14:55.270Z,46.80
2019-04-21T05:17:30.651Z,44.20
2019-04-21T05:22:29.123Z,38.20
2019-04-21T05:24:55.254Z,42.60
2019-04-21T05:27:38.070Z,40.80
2019-04-21T05:30:28.626Z,42.40
2019-04-21T05:33:22.279Z,41.00
2019-04-21T05:35:50.683Z,40.80
2019-04-21T05:38:40.690Z,39.80
2019-04-21T05:41:07.757Z,40.40
2019-04-21T05:43:50.341Z,40.00
2019-04-21T05:46:25.196Z,41.60
2019-04-21T05:49:05.846Z,43.80
2019-04-21T05:51:30.522Z,40.80
2019-04-21T05:54:14.931Z,42.00
2019-04-21T05:56:40.724Z,41.00
2019-04-21T05:59:12.074Z,42.00
2019-04-21T06:02:02.560Z,40.00
2019-04-21T06:04:38.823Z,38.40
2019-04-21T06:07:06.020Z,40.60
2019-04-21T06:09:40.983Z,40.60
2019-04-21T06:12:10.291Z,40.20
2019-04-21T06:14:46.844Z,36.80
2019-04-21T06:17:19.790Z,40.40
2019-04-21T06:19:57.546Z,35.60
2019-04-21T06:22:44.901Z,39.00
2019-04-21T06:27:32.749Z,36.60
2019-04-21T06:30:03.292Z,39.60
2019-04-21T06:32:47.125Z,37.00
2019-04-21T06:35:45.516Z,37.60
2019-04-21T06:38:05.783Z,35.60
2019-04-21T06:40:46.126Z,33.20
2019-04-21T06:43:27.352Z,35.20
2019-04-21T06:45:50.699Z,37.20
2019-04-21T06:48:24.634Z,39.00
2019-04-21T06:51:17.163Z,30.40
2019-04-21T06:53:42.564Z,34.40
2019-04-21T06:56:08.180Z,36.20
2019-04-21T06:58:35.584Z,36.80
2019-04-21T07:01:10.501Z,34.80
2019-04-21T07:03:49.370Z,37.60
2019-04-21T07:06:12.530Z,35.20
2019-04-21T07:08:53.265Z,35.80
2019-04-21T07:11:18.741Z,32.40
2019-04-21T07:14:14.833Z,38.20
2019-04-21T07:16:33.154Z,34.80
2019-04-21T07:19:12.505Z,34.00
2019-04-21T07:21:33.796Z,35.20
2019-04-21T07:24:14.142Z,39.00
2019-04-21T07:26:45.428Z,33.80
2019-04-21T07:31:55.843Z,34.80
2019-04-21T07:34:27.246Z,37.00
2019-04-21T07:36:55.881Z,35.20
2019-04-21T07:39:29.734Z,36.60
2019-04-21T07:41:59.617Z,37.20
2019-04-21T07:44:32.987Z,34.40
2019-04-21T07:47:11.557Z,35.60
2019-04-21T07:50:00.482Z,35.00
2019-04-21T07:52:49.290Z,31.40
2019-04-21T07:57:39.741Z,30.40
2019-04-21T08:00:29.647Z,30.40
2019-04-21T08:03:05.856Z,32.00
2019-04-21T08:05:35.539Z,30.20
2019-04-21T08:08:01.498Z,32.40
2019-04-21T08:10:39.216Z,33.20
2019-04-21T08:13:21.036Z,29.80
2019-04-21T08:16:04.683Z,29.80
2019-04-21T08:18:27.074Z,30.00
2019-04-21T08:20:54.482Z,31.80
2019-04-21T08:23:31.515Z,29.40
2019-04-21T08:26:06.085Z,28.00
2019-04-21T08:28:44.077Z,27.20
2019-04-21T08:31:18.428Z,28.20
2019-04-21T08:34:05.997Z,25.40
2019-04-21T08:36:24.929Z,27.40
2019-04-21T08:38:53.681Z,29.80
2019-04-21T08:41:24.275Z,30.60
2019-04-21T08:43:57.412Z,27.60
2019-04-21T08:46:39.194Z,31.80
2019-04-21T08:49:09.390Z,28.60
2019-04-21T08:52:04.084Z,31.00
2019-04-21T08:54:22.651Z,29.40
2019-04-21T08:57:20.142Z,26.40
2019-04-21T09:00:03.203Z,31.80
2019-04-21T09:03:00.375Z,32.20
2019-04-21T09:05:29.851Z,32.20
2019-04-21T09:08:05.275Z,30.60
2019-04-21T09:10:39.166Z,30.00
2019-04-21T09:13:14.922Z,30.20
2019-04-21T09:15:41.590Z,31.20
2019-04-21T09:18:13.366Z,30.40
2019-04-21T09:21:00.052Z,30.20
2019-04-21T09:23:26.119Z,31.60
2019-04-21T09:25:57.398Z,29.80
2019-04-21T09:28:27.266Z,26.60
2019-04-21T09:30:55.979Z,32.40
2019-04-21T09:33:28.110Z,29.00
2019-04-21T09:36:02.604Z,28.40
2019-04-21T09:38:37.046Z,30.20
2019-04-21T09:41:06.677Z,30.80
2019-04-21T09:43:43.701Z,30.40
2019-04-21T09:46:11.828Z,32.20
2019-04-21T09:48:52.813Z,32.20
2019-04-21T09:51:17.851Z,33.00
2019-04-21T09:53:57.238Z,29.60
2019-04-21T09:56:31.202Z,31.00
2019-04-21T09:59:10.161Z,31.60
2019-04-21T10:01:49.148Z,30.20
2019-04-21T10:04:07.541Z,30.40
2019-04-21T10:06:39.623Z,32.60
2019-04-21T10:09:14.802Z,30.40
2019-04-21T10:11:45.914Z,27.20
2019-04-21T10:14:18.068Z,29.60
2019-04-21T10:17:06.353Z,32.00
2019-04-21T10:19:37.738Z,30.20
2019-04-21T10:22:10.588Z,28.20
2019-04-21T10:24:44.525Z,27.60
2019-04-21T10:27:17.167Z,28.60
2019-04-21T10:29:50.485Z,26.80
2019-04-21T10:32:25.006Z,22.40
2019-04-21T10:34:56.922Z,25.80
2019-04-21T10:37:42.898Z,28.40
2019-04-21T10:40:03.390Z,25.60
2019-04-21T10:42:35.449Z,21.20
2019-04-21T10:45:07.645Z,28.40
2019-04-21T10:47:40.928Z,30.20
2019-04-21T10:50:13.191Z,30.00
2019-04-21T10:53:22.928Z,32.60
2019-04-21T10:56:11.538Z,28.80
2019-04-21T10:58:38.283Z,26.40
2019-04-21T11:01:15.098Z,29.60
2019-04-21T11:03:53.242Z,26.80
2019-04-21T11:06:26.394Z,26.60
2019-04-21T11:09:01.051Z,25.20
2019-04-21T11:11:32.355Z,26.60
2019-04-21T11:14:06.468Z,23.00
2019-04-21T11:16:39.224Z,27.00
2019-04-21T11:19:11.846Z,30.20
2019-04-21T11:21:45.136Z,24.60
2019-04-21T11:24:18.160Z,29.60
2019-04-21T11:26:49.821Z,28.60
2019-04-21T11:29:23.241Z,25.60
2019-04-21T11:31:56.763Z,25.80
2019-04-21T11:34:29.293Z,26.80
2019-04-21T11:37:01.905Z,24.20
2019-04-21T11:39:42.109Z,24.40
2019-04-21T11:42:23.728Z,29.40
2019-04-21T11:44:55.809Z,22.00
2019-04-21T11:47:36.409Z,22.40
2019-04-21T11:50:08.260Z,25.40
2019-04-21T11:52:41.049Z,25.20
2019-04-21T11:55:14.283Z,24.40
2019-04-21T11:57:48.646Z,21.80
2019-04-21T12:00:19.823Z,21.20
2019-04-21T12:02:53.294Z,27.80
2019-04-21T12:05:25.496Z,28.40
2019-04-21T12:07:58.541Z,29.00
2019-04-21T12:10:31.503Z,25.80
2019-04-21T12:13:04.636Z,28.00
2019-04-21T12:15:37.184Z,23.60
2019-04-21T12:18:10.019Z,26.80
2019-04-21T12:20:43.041Z,25.40
2019-04-21T12:23:14.732Z,22.60
2019-04-21T12:25:49.442Z,29.60
2019-04-21T12:28:21.853Z,29.40
2019-04-21T12:30:55.799Z,30.20
2019-04-21T12:33:45.744Z,28.20
2019-04-21T12:36:17.848Z,28.40
2019-04-21T12:38:55.559Z,29.20
2019-04-21T12:41:24.524Z,28.00
2019-04-21T12:43:57.007Z,28.60
2019-04-21T12:46:29.883Z,29.20
2019-04-21T12:49:02.163Z,27.60
2019-04-21T12:51:35.604Z,26.00
2019-04-21T12:54:07.998Z,31.00
2019-04-21T12:56:41.172Z,31.80
2019-04-21T12:59:13.119Z,32.40
2019-04-21T13:01:45.304Z,32.20
2019-04-21T13:04:17.730Z,29.40
2019-04-21T13:06:49.840Z,33.40
2019-04-21T13:09:22.237Z,31.20
2019-04-21T13:11:55.150Z,32.40
2019-04-21T13:14:27.058Z,30.20
2019-04-21T13:16:59.415Z,31.40
2019-04-21T13:19:31.506Z,51.20
2019-04-21T13:22:03.837Z,40.00
2019-04-21T13:24:35.852Z,33.40
2019-04-21T13:27:09.406Z,34.40
2019-04-21T13:29:41.958Z,40.20
2019-04-21T13:32:14.371Z,38.40
2019-04-21T13:34:47.750Z,39.40
2019-04-21T13:37:19.480Z,40.20
2019-04-21T13:40:32.023Z,42.00
2019-04-21T13:42:48.549Z,36.20
2019-04-21T13:45:18.349Z,36.80
2019-04-21T13:47:52.558Z,33.60
2019-04-21T13:50:25.471Z,35.40
2019-04-21T13:52:58.671Z,34.60
2019-04-21T13:55:31.759Z,33.20
2019-04-21T13:58:04.292Z,35.00
2019-04-21T14:00:35.930Z,38.40
2019-04-21T14:03:10.440Z,39.20
2019-04-21T14:05:42.334Z,44.40
2019-04-21T14:08:15.674Z,44.20
2019-04-21T14:10:49.355Z,48.60
2019-04-21T14:13:22.523Z,50.40
2019-04-21T14:15:54.228Z,47.20
2019-04-21T14:18:28.779Z,47.00
2019-04-21T14:21:00.998Z,45.40
2019-04-21T14:23:40.547Z,46.60
2019-04-21T14:26:08.582Z,43.60
2019-04-21T14:28:41.049Z,40.80
2019-04-21T14:31:12.559Z,47.40
2019-04-21T14:33:46.294Z,44.40
2019-04-21T14:36:18.864Z,43.40
2019-04-21T14:38:52.260Z,46.80
2019-04-21T14:41:24.345Z,47.60
2019-04-21T14:44:00.596Z,45.00
2019-04-21T14:46:51.575Z,45.80
2019-04-21T14:49:31.039Z,48.80
2019-04-21T14:52:09.063Z,47.20
2019-04-21T14:54:50.935Z,46.00
2019-04-21T14:57:45.189Z,44.60
2019-04-21T15:00:19.008Z,46.80
2019-04-21T15:02:51.953Z,45.40
2019-04-21T15:05:25.195Z,45.20
2019-04-21T15:07:59.291Z,47.60
2019-04-21T15:10:33.430Z,46.20
2019-04-21T15:13:05.709Z,50.40
2019-04-21T15:15:38.065Z,51.60
2019-04-21T15:18:12.475Z,52.00
2019-04-21T15:20:45.716Z,52.40
2019-04-21T15:23:18.485Z,49.40
2019-04-21T15:25:50.335Z,45.40
2019-04-21T15:28:22.043Z,51.00
2019-04-21T15:30:54.789Z,50.60
2019-04-21T15:33:30.554Z,51.40
2019-04-21T15:36:05.052Z,52.40
2019-04-21T15:38:37.820Z,54.40
2019-04-21T15:41:10.881Z,58.20
2019-04-21T15:43:42.990Z,58.60
2019-04-21T15:46:15.151Z,63.40
2019-04-21T15:48:46.813Z,64.00
2019-04-21T15:51:19.724Z,65.20
2019-04-21T15:53:51.989Z,62.00
2019-04-21T15:57:00.874Z,70.00
2019-04-21T15:59:54.914Z,71.20
2019-04-21T16:02:40.359Z,64.80
2019-04-21T16:05:15.117Z,69.00
2019-04-21T16:07:47.935Z,60.40
2019-04-21T16:10:30.878Z,68.00
2019-04-21T16:12:53.972Z,61.00
2019-04-21T16:15:26.306Z,62.60
2019-04-21T16:17:59.249Z,66.60
2019-04-21T16:20:32.283Z,60.40
2019-04-21T16:23:04.877Z,59.20
2019-04-21T16:25:36.938Z,67.40
2019-04-21T16:28:09.413Z,82.80
2019-04-21T16:30:42.550Z,76.80
2019-04-21T16:33:15.885Z,73.00
2019-04-21T16:35:47.630Z,64.40
2019-04-21T16:38:19.781Z,70.00
2019-04-21T16:40:57.366Z,75.20
2019-04-21T16:43:29.097Z,74.80
2019-04-21T16:46:01.399Z,74.80
2019-04-21T16:48:33.906Z,85.40
2019-04-21T16:51:07.817Z,82.80
2019-04-21T16:53:46.113Z,83.20
2019-04-21T16:56:24.820Z,85.80
2019-04-21T16:59:06.387Z,83.00
2019-04-21T17:01:38.463Z,76.80
2019-04-21T17:04:12.668Z,75.60
2019-04-21T17:06:45.098Z,69.40
2019-04-21T17:09:17.068Z,80.20
2019-04-21T17:11:53.633Z,75.20
2019-04-21T17:14:39.192Z,74.60
2019-04-21T17:17:19.828Z,69.20
2019-04-21T17:19:37.039Z,72.00
2019-04-21T17:22:05.732Z,74.40
2019-04-21T17:24:38.035Z,72.80
2019-04-21T17:27:11.106Z,74.40
2019-04-21T17:29:43.122Z,74.00
2019-04-21T17:32:16.434Z,70.00
2019-04-21T17:34:49.914Z,69.00
2019-04-21T17:37:25.017Z,66.80
2019-04-21T17:39:56.862Z,62.20
2019-04-21T17:42:36.981Z,68.80
2019-04-21T17:45:03.528Z,71.20
2019-04-21T17:47:45.770Z,70.20
2019-04-21T17:50:27.611Z,70.80
2019-04-21T17:53:10.089Z,68.00
2019-04-21T17:55:40.906Z,68.00
2019-04-21T17:58:27.870Z,75.80
2019-04-21T18:03:46.190Z,71.40
2019-04-21T18:06:07.490Z,70.00
2019-04-21T18:08:50.665Z,69.00
2019-04-21T18:11:10.175Z,57.80
2019-04-21T18:13:35.657Z,72.00
2019-04-21T18:16:19.223Z,67.00
2019-04-21T18:18:41.265Z,70.40
2019-04-21T18:21:20.891Z,69.00
2019-04-21T18:24:07.376Z,70.00
2019-04-21T18:26:40.581Z,72.00
2019-04-21T18:29:05.495Z,69.00
2019-04-21T18:31:43.143Z,69.00
2019-04-21T18:34:48.360Z,68.00
2019-04-21T18:37:42.909Z,62.00
2019-04-21T18:40:18.797Z,66.00
2019-04-21T18:43:37.817Z,59.20
2019-04-21T18:46:20.569Z,61.80
2019-04-21T18:49:04.395Z,66.80
2019-04-21T18:52:02.261Z,70.20
2019-04-21T18:54:47.240Z,62.60
2019-04-21T18:57:10.824Z,71.40
2019-04-21T18:59:40.191Z,61.80
2019-04-21T19:02:14.886Z,72.40
2019-04-21T19:04:46.024Z,66.40
2019-04-21T19:07:33.299Z,68.80
2019-04-21T19:10:23.724Z,65.60
2019-04-21T19:13:16.027Z,67.00
2019-04-21T19:15:15.702Z,68.20
2019-04-21T19:20:26.073Z,66.40
2019-04-21T19:23:00.316Z,64.20
2019-04-21T19:25:31.464Z,77.60
2019-04-21T19:28:09.737Z,67.40
2019-04-21T19:30:50.813Z,65.80
2019-04-21T19:33:22.431Z,70.00
2019-04-21T19:35:37.221Z,71.40
2019-04-21T19:38:12.268Z,67.60
2019-04-21T19:40:56.844Z,71.60
2019-04-21T19:43:35.809Z,67.40
2019-04-21T19:46:09.786Z,62.00
2019-04-21T19:48:44.590Z,69.20
2019-04-21T19:51:15.047Z,72.00
2019-04-21T19:53:45.848Z,62.20
2019-04-21T19:56:11.981Z,67.20
2019-04-21T19:58:46.030Z,64.80
2019-04-21T20:01:17.525Z,64.80
2019-04-21T20:03:55.501Z,62.80
2019-04-21T20:06:44.077Z,60.00
2019-04-21T20:09:17.756Z,56.00
2019-04-21T20:11:52.235Z,66.20
2019-04-21T20:16:56.715Z,60.00
2019-04-21T20:19:16.183Z,59.60
2019-04-21T20:21:49.199Z,60.20
2019-04-21T20:24:26.584Z,64.00
2019-04-21T20:27:03.479Z,57.40
2019-04-21T20:29:49.948Z,55.60
2019-04-21T20:32:29.010Z,54.80
2019-04-21T20:35:01.371Z,56.20
2019-04-21T20:37:25.235Z,59.80
2019-04-21T20:39:53.396Z,58.20
2019-04-21T20:42:28.028Z,54.80
2019-04-21T20:45:22.067Z,61.60
2019-04-21T20:47:34.954Z,65.20
2019-04-21T20:50:12.636Z,56.00
2019-04-21T20:52:56.902Z,60.80
2019-04-21T20:55:19.365Z,55.60
2019-04-21T20:57:51.742Z,59.00
2019-04-21T21:00:34.004Z,58.20
2019-04-21T21:03:06.997Z,63.80
2019-04-21T21:05:37.570Z,57.00
2019-04-21T21:08:18.005Z,62.60
2019-04-21T21:10:43.928Z,61.80
2019-04-21T21:13:26.443Z,56.40
2019-04-21T21:16:09.543Z,57.20
2019-04-21T21:18:48.148Z,54.60
2019-04-21T21:21:06.371Z,58.40
2019-04-21T21:23:40.548Z,63.40
2019-04-21T21:26:18.826Z,65.60
2019-04-21T21:28:38.939Z,64.60
2019-04-21T21:31:25.271Z,55.20
2019-04-21T21:33:59.006Z,54.20
2019-04-21T21:36:26.506Z,53.80
2019-04-21T21:39:01.371Z,51.20
2019-04-21T21:41:22.349Z,55.40
2019-04-21T21:43:58.071Z,54.80
2019-04-21T21:46:43.033Z,53.20
2019-04-21T21:49:03.832Z,55.20
2019-04-21T21:51:39.848Z,54.40
2019-04-21T21:54:03.313Z,51.00
2019-04-21T21:56:48.075Z,54.20
2019-04-21T21:59:22.666Z,50.40
2019-04-21T22:01:56.104Z,52.20
2019-04-21T22:04:30.740Z,55.40
2019-04-21T22:07:09.238Z,56.00
2019-04-21T22:09:34.637Z,52.20
2019-04-21T22:12:08.701Z,55.20
2019-04-21T22:14:45.538Z,55.20
2019-04-21T22:17:31.750Z,53.60
2019-04-21T22:20:17.102Z,55.40
2019-04-21T22:22:41.726Z,58.80
2019-04-21T22:25:09.838Z,54.80
2019-04-21T22:27:36.925Z,53.60
2019-04-21T22:30:13.050Z,54.80
2019-04-21T22:32:51.809Z,54.80
2019-04-21T22:35:28.464Z,53.80
2019-04-21T22:38:10.819Z,53.60
2019-04-21T22:40:44.026Z,52.40
2019-04-21T22:43:11.629Z,55.20
2019-04-21T22:45:35.576Z,53.20
2019-04-21T22:48:14.036Z,51.00
2019-04-21T22:50:42.436Z,53.20
2019-04-21T22:53:17.210Z,55.40
2019-04-21T22:55:49.519Z,52.40
2019-04-21T22:58:25.740Z,51.80
2019-04-21T23:00:58.411Z,53.80
2019-04-21T23:03:30.317Z,56.00
2019-04-21T23:06:10.985Z,52.40
2019-04-21T23:08:40.537Z,55.40
2019-04-21T23:11:12.375Z,52.20
2019-04-21T23:13:45.113Z,55.20
2019-04-21T23:16:21.413Z,52.40
2019-04-21T23:19:13.094Z,55.80
2019-04-21T23:21:41.364Z,59.20
2019-04-21T23:24:15.144Z,57.00
2019-04-21T23:26:50.716Z,52.00
2019-04-21T23:29:35.608Z,54.60
2019-04-21T23:31:55.125Z,55.00
2019-04-21T23:34:19.897Z,60.40
2019-04-21T23:36:53.218Z,62.40
2019-04-21T23:39:23.710Z,66.00
2019-04-21T23:41:55.891Z,63.80
2019-04-21T23:44:28.185Z,61.20
2019-04-21T23:47:04.796Z,66.20
2019-04-21T23:49:42.974Z,60.60
2019-04-21T23:52:10.980Z,60.80
2019-04-21T23:54:41.073Z,71.80
2019-04-21T23:57:23.444Z,69.60
2019-04-21T23:59:53.410Z,65.80
